Lučenec, Slovakia

03:36 PM CEST dna 26 August, 2016 (GMT +0200)
Lucenec Rubanisko II | | Change Station

Elev 699 ft 48.34 °N, 19.65 °E | Updated 6 minutes ago

Clear
Jasno
79.2 °F
Feels Like 80 °F
N
4.0
Vietor meniaci sa Vietor from VJV
Gusts 8.0 mph

Dnes
High -- | Low -- °F
--% Chance of Precip.
Yesterday
High -- | Low -- °F
Precip. -- in
Tlak 30.27 in
Viditeľnosť -9999.0 mile
Oblačnost
Teplotný index 80 °F
Rosný bod 58 °F
Vlhkosť 48%
Rainfall 0.00 in
Výška snehu Not available.
5:50 AM 7:33 PM
Ubúdajúci mesiac, 4. fáza, 34% visible
METAR LZTT 261330Z 15006KT 100V210 CAVOK 24/10 Q1025 NOSIG
Tlak 30.27 in
Viditeľnosť -9999.0 mile
Oblačnost
Teplotný index 80 °F
Rosný bod 58 °F
Vlhkosť 48%
Rainfall 0.00 in
Výška snehu Not available.
5:50 AM 7:33 PM
Ubúdajúci mesiac, 4. fáza, 34% visible
METAR LZTT 261330Z 15006KT 100V210 CAVOK 24/10 Q1025 NOSIG

10-Day Weather Forecast

×

Almanac

Astronómia

Aug. 26, 2016 Východ Západ
Aktuálny čas
Civil Twilight
Nautical Twilight
Astronomical Twilight
Mesiac
Length Of Visible Light
Dĺžka dňa
Tomorrow will be .
, % of the Moon is Illuminated

Today's Extremes

Country Highs Country Lows

Community

WunderPhotos

Upload Photos

1,935,084 photos uploaded!

WunderBlog® & News

Nearby

Air Quality

  Air Quality AQ Index Pollutant
Not available.

Výska snehu

Station Depth Nad. výška:

Aktivita zemetrasenia

Mesto Distance Mag. Time & Date
Minimum magnitude displayed is 2.5.

Coastal Water Temperatures

Miesto Teplota

Stations

Najbližšie meteo stanice

Station Location Temp Pocitová teplota Rosný bod Vlhkosť Vietor Precip. Elev Cas aktualizacie Type